Flight Track Log - Related Links

Times and Time Zones

All times are in EDT time to prevent confusion due to time zone crossing. See the VH-WYR flight status page for this flight to view local times or setup timezone preferences in your user account.

Time Position Orientation Groundspeed Altitude Reporting Facility
EDT Latitude Longitude Course Direction KTS MPH feet Rate Location/Type
Tue 05:27:11 PM -33.8209 151.2753 200° South 74 85 900  Level Aus ATC (RADAR)
Tue 05:27:36 PM -33.8288 151.2719 200° South 72 83 900  Level Aus ATC (RADAR)
Tue 05:28:11 PM -33.8397 151.2654 206° Southwest 74 85 900  Level Aus ATC (RADAR)
Tue 05:28:56 PM -33.8518 151.2558 213° Southwest 69 79 900  Level Aus ATC (RADAR)
Tue 05:29:31 PM -33.8583 151.2454 233° Southwest 64 74 900 92 Level Aus ATC (RADAR)
Tue 05:30:01 PM -33.8574 151.2360 276° West 55 63 1,000  Climbing Aus ATC (RADAR)
Tue 05:30:41 PM -33.8542 151.2233 287° West 59 68 900 -57 Descending Aus ATC (RADAR)
Tue 05:31:46 PM -33.8408 151.2137 329° Northwest 57 66 900  Level Aus ATC (RADAR)
Tue 05:32:16 PM -33.8389 151.2116 317° Northwest 41 47 900 92 Level Aus ATC (RADAR)
Tue 05:32:51 PM -33.8463 151.2146 161° South 45 52 1,000 343 Climbing Aus ATC (RADAR)
Tue 05:33:26 PM -33.8428 151.2242 66° East 51 59 1,300 369 Climbing Aus ATC (RADAR)
Tue 05:33:56 PM -33.8368 151.2327 50° Northeast 66 76 1,400 92 Climbing Aus ATC (RADAR)
Tue 05:34:31 PM -33.8322 151.2308 341° North 35 40 1,400  Level Aus ATC (RADAR)
Tue 05:35:06 PM -33.8309 151.2254 286° West 26 30 1,400 86 Level Aus ATC (RADAR)
Tue 05:35:41 PM -33.8331 151.2309 115° Southeast 55 63 1,500 58 Climbing Aus ATC (RADAR)
Tue 05:36:50 PM -33.8253 151.2454 57° Northeast 38 44 1,500  Level Aus ATC (RADAR)
Tue 05:37:21 PM -33.8265 151.2409 251° West 30 35 1,500  Level Aus ATC (RADAR)
Tue 05:37:56 PM -33.8242 151.2393 330° Northwest 45 52 1,500 -87 Level Aus ATC (RADAR)
Tue 05:38:30 PM -33.8250 151.2561 93° East 80 92 1,400 -435 Descending Aus ATC (RADAR)
Tue 05:39:05 PM -33.8341 151.2697 129° Southeast 93 107 1,000 -429 Descending Aus ATC (RADAR)
Tue 05:39:40 PM -33.8457 151.2670 191° South 71 82 900 -86 Descending Aus ATC (RADAR)
Tue 05:40:15 PM -33.8536 151.2622 206° Southwest 54 62 900  Level Aus ATC (RADAR)
Tue 05:40:50 PM -33.8600 151.2579 209° Southwest 45 52 900  Level Aus ATC (RADAR)
Tue 05:42:15 PM -33.8612 151.2558 237° Southwest 31 36 900 55 Level Aus ATC (RADAR)
Tue 05:42:40 PM -33.8617 151.2526 259° West 23 26 1,000 100 Climbing Aus ATC (RADAR)
Tue 05:43:15 PM -33.8635 151.2484 242° Southwest 23 26 1,000  Level Aus ATC (RADAR)
Tue 05:44:00 PM -33.8651 151.2438 248° West 19 22 1,000  Level Aus ATC (RADAR)
Tue 05:44:35 PM -33.8647 151.2412 280° West 13 15 1,000 -92 Level Aus ATC (RADAR)
Tue 05:45:05 PM -33.8617 151.2487 64° Northeast 51 59 900  Descending Aus ATC (RADAR)
Tue 05:45:45 PM -33.8572 151.2624 69° East 68 78 1,000 -92 Climbing Aus ATC (RADAR)
Tue 05:47:15 PM -33.8596 151.2397 263° West 56 64 700 -211 Descending Aus ATC (RADAR)
Tue 05:47:39 PM -33.8582 151.2312 281° West 59 68 600 -305 Descending Aus ATC (RADAR)
Tue 05:48:14 PM -33.8567 151.2197 279° West 58 67 400 -141 Descending Aus ATC (RADAR)
Tue 05:49:04 PM -33.8532 151.2056 286° West 50 58 400  Level Aus ATC (RADAR)
Tue 05:49:39 PM -33.8497 151.1956 293° West 54 62 400 75 Level Aus ATC (RADAR)
Tue 05:50:24 PM -33.8450 151.1834 295° West 51 59 500  Climbing Aus ATC (RADAR)
Tue 05:50:49 PM -33.8453 151.1757 267° West 53 61 400 -57 Descending Aus ATC (RADAR)
Tue 05:52:09 PM -33.8406 151.1546 285° West 52 60 400  Level Aus ATC (RADAR)
Tue 05:52:34 PM -33.8409 151.1475 267° West 50 58 400  Level Aus ATC (RADAR)
Tue 05:53:09 PM -33.8448 151.1427 226° Southwest 46 53 400  Level Aus ATC (RADAR)
Tue 05:53:54 PM -33.8436 151.1306 277° West 48 55 400  Level Aus ATC (RADAR)
Tue 05:54:29 PM -33.8413 151.1221 288° West 46 53 400  Level Aus ATC (RADAR)
Tue 05:55:04 PM -33.8376 151.1115 293° West 57 66 400 86 Level Aus ATC (RADAR)
Tue 05:55:39 PM -33.8318 151.1017 305° West 61 70 500  Climbing Aus ATC (RADAR)
Tue 05:56:49 PM -33.8247 151.0953 324° Northwest 41 47 400 -67 Descending Aus ATC (RADAR)
Tue 05:57:09 PM -33.8231 151.0938 323° Northwest 28 32 400  Level Aus ATC (RADAR)
Tue 05:57:34 PM -33.8229 151.0867 272° West 46 53 400 200 Level Aus ATC (RADAR)
Tue 05:58:09 PM -33.8307 151.0811 211° Southwest 54 62 600 304 Climbing Aus ATC (RADAR)
Tue 05:58:53 PM -33.8423 151.0807 181° South 57 66 800 304 Climbing Aus ATC (RADAR)
Tue 05:59:28 PM -33.8503 151.0750 211° Southwest 56 64 1,000 277 Climbing Aus ATC (RADAR)
Tue 05:59:58 PM -33.8549 151.0691 227° Southwest 46 53 1,100 250 Climbing Aus ATC (RADAR)
Tue 06:00:40 PM -33.8593 151.0638 225° Southwest 44 51 1,300 154 Climbing Aus ATC (RADAR)
Tue 06:01:55 PM -33.8494 151.0535 319° Northwest 37 43 1,400 120 Climbing Aus ATC (RADAR)
Tue 06:02:20 PM -33.8499 151.0480 264° West 37 43 1,500 111 Climbing Aus ATC (RADAR)
Tue 06:02:49 PM -33.8494 151.0412 274° West 39 45 1,500  Level Aus ATC (RADAR)
Tue 06:03:23 PM -33.8490 151.0326 274° West 41 47 1,500 -75 Level Aus ATC (RADAR)
Tue 06:04:09 PM -33.8437 151.0287 328° Northwest 51 59 1,400  Descending Aus ATC (RADAR)
Tue 06:04:43 PM -33.8377 151.0277 352° North 40 46 1,500  Climbing Aus ATC (RADAR)
Tue 06:05:33 PM -33.8356 151.0157 282° West 44 51 1,400 -92 Descending Aus ATC (RADAR)
Tue 06:05:48 PM -33.8344 151.0120 290° West 46 53 1,400  Level Aus ATC (RADAR)
Tue 06:07:08 PM -33.8362 151.0166 115° Southeast 46 53 1,400  Level Aus ATC (RADAR)
Tue 06:07:32 PM -33.8358 151.0110 275° West 36 41 1,400  Level Aus ATC (RADAR)

Login

Don't have an account? Register now (free) for customized features, flight alerts, and more!